sensor_id;sensor_type;location;lat;lon;timestamp;P1;durP1;ratioP1;P2;durP2;ratioP2
21158;SDS011;10737;45.436;4.390;2023-10-08T00:01:29;10.35;;;5.45;;
21158;SDS011;10737;45.436;4.390;2023-10-08T00:06:35;6.55;;;4.95;;
21158;SDS011;10737;45.436;4.390;2023-10-08T00:11:39;6.53;;;4.90;;
21158;SDS011;10737;45.436;4.390;2023-10-08T00:16:44;6.72;;;4.50;;
21158;SDS011;10737;45.436;4.390;2023-10-08T00:21:51;8.15;;;4.85;;
21158;SDS011;10737;45.436;4.390;2023-10-08T00:27:14;7.45;;;4.63;;
21158;SDS011;10737;45.436;4.390;2023-10-08T00:32:19;6.55;;;4.80;;
21158;SDS011;10737;45.436;4.390;2023-10-08T00:37:23;6.38;;;4.65;;
21158;SDS011;10737;45.436;4.390;2023-10-08T00:42:28;6.75;;;5.68;;
21158;SDS011;10737;45.436;4.390;2023-10-08T00:47:34;8.55;;;5.72;;
21158;SDS011;10737;45.436;4.390;2023-10-08T00:52:44;7.07;;;5.78;;
21158;SDS011;10737;45.436;4.390;2023-10-08T00:57:59;5.50;;;4.35;;
21158;SDS011;10737;45.436;4.390;2023-10-08T01:03:12;7.43;;;5.20;;
21158;SDS011;10737;45.436;4.390;2023-10-08T01:08:18;8.20;;;5.45;;
21158;SDS011;10737;45.436;4.390;2023-10-08T01:13:36;8.00;;;5.25;;
21158;SDS011;10737;45.436;4.390;2023-10-08T01:19:06;7.15;;;5.03;;
21158;SDS011;10737;45.436;4.390;2023-10-08T01:24:16;5.88;;;4.38;;
21158;SDS011;10737;45.436;4.390;2023-10-08T01:29:39;6.32;;;5.30;;
21158;SDS011;10737;45.436;4.390;2023-10-08T01:34:46;6.75;;;5.15;;
21158;SDS011;10737;45.436;4.390;2023-10-08T01:39:50;6.07;;;5.07;;
21158;SDS011;10737;45.436;4.390;2023-10-08T01:44:53;5.63;;;4.18;;
21158;SDS011;10737;45.436;4.390;2023-10-08T01:49:57;6.85;;;4.80;;
21158;SDS011;10737;45.436;4.390;2023-10-08T01:55:09;9.15;;;5.18;;
21158;SDS011;10737;45.436;4.390;2023-10-08T02:00:37;7.90;;;4.90;;
21158;SDS011;10737;45.436;4.390;2023-10-08T02:05:41;5.30;;;4.70;;
21158;SDS011;10737;45.436;4.390;2023-10-08T02:10:45;7.18;;;4.68;;
21158;SDS011;10737;45.436;4.390;2023-10-08T02:15:50;6.03;;;5.00;;
21158;SDS011;10737;45.436;4.390;2023-10-08T02:20:54;7.10;;;4.75;;
21158;SDS011;10737;45.436;4.390;2023-10-08T02:26:17;6.03;;;5.38;;
21158;SDS011;10737;45.436;4.390;2023-10-08T02:31:21;7.97;;;5.50;;
21158;SDS011;10737;45.436;4.390;2023-10-08T02:36:24;5.32;;;4.78;;
21158;SDS011;10737;45.436;4.390;2023-10-08T02:41:29;8.82;;;6.22;;
21158;SDS011;10737;45.436;4.390;2023-10-08T02:46:33;6.72;;;5.18;;
21158;SDS011;10737;45.436;4.390;2023-10-08T02:51:39;6.68;;;5.75;;
21158;SDS011;10737;45.436;4.390;2023-10-08T02:56:44;6.22;;;4.72;;
21158;SDS011;10737;45.436;4.390;2023-10-08T03:01:48;9.60;;;5.72;;
21158;SDS011;10737;45.436;4.390;2023-10-08T03:06:54;6.18;;;4.80;;
21158;SDS011;10737;45.436;4.390;2023-10-08T03:11:59;7.65;;;5.47;;
21158;SDS011;10737;45.436;4.390;2023-10-08T03:17:02;5.80;;;4.93;;
21158;SDS011;10737;45.436;4.390;2023-10-08T03:22:09;6.30;;;5.10;;
21158;SDS011;10737;45.436;4.390;2023-10-08T03:27:16;7.28;;;4.90;;
21158;SDS011;10737;45.436;4.390;2023-10-08T03:32:22;6.47;;;4.90;;
21158;SDS011;10737;45.436;4.390;2023-10-08T03:37:28;7.18;;;4.43;;
21158;SDS011;10737;45.436;4.390;2023-10-08T03:42:33;7.13;;;5.40;;
21158;SDS011;10737;45.436;4.390;2023-10-08T03:47:42;6.05;;;4.53;;
21158;SDS011;10737;45.436;4.390;2023-10-08T03:52:48;6.22;;;4.53;;
21158;SDS011;10737;45.436;4.390;2023-10-08T03:57:53;6.72;;;4.55;;
21158;SDS011;10737;45.436;4.390;2023-10-08T04:02:59;8.07;;;4.85;;
21158;SDS011;10737;45.436;4.390;2023-10-08T04:08:28;5.35;;;4.57;;
21158;SDS011;10737;45.436;4.390;2023-10-08T04:14:05;7.60;;;5.85;;
21158;SDS011;10737;45.436;4.390;2023-10-08T04:19:09;6.53;;;5.45;;
21158;SDS011;10737;45.436;4.390;2023-10-08T04:24:13;7.57;;;5.10;;
21158;SDS011;10737;45.436;4.390;2023-10-08T04:29:18;6.60;;;5.32;;
21158;SDS011;10737;45.436;4.390;2023-10-08T04:34:24;6.65;;;5.10;;
21158;SDS011;10737;45.436;4.390;2023-10-08T04:39:29;5.82;;;5.20;;
21158;SDS011;10737;45.436;4.390;2023-10-08T04:44:36;8.10;;;6.18;;
21158;SDS011;10737;45.436;4.390;2023-10-08T04:49:41;6.90;;;5.15;;
21158;SDS011;10737;45.436;4.390;2023-10-08T04:54:47;5.57;;;4.97;;
21158;SDS011;10737;45.436;4.390;2023-10-08T04:59:55;6.93;;;4.93;;
21158;SDS011;10737;45.436;4.390;2023-10-08T05:04:59;5.70;;;5.18;;
21158;SDS011;10737;45.436;4.390;2023-10-08T05:10:20;6.10;;;4.75;;
21158;SDS011;10737;45.436;4.390;2023-10-08T05:16:04;6.88;;;5.50;;
21158;SDS011;10737;45.436;4.390;2023-10-08T05:21:31;6.90;;;4.80;;
21158;SDS011;10737;45.436;4.390;2023-10-08T05:26:52;7.80;;;5.45;;
21158;SDS011;10737;45.436;4.390;2023-10-08T05:32:12;5.65;;;4.80;;
21158;SDS011;10737;45.436;4.390;2023-10-08T05:37:36;6.50;;;5.10;;
21158;SDS011;10737;45.436;4.390;2023-10-08T05:42:44;5.40;;;4.90;;
21158;SDS011;10737;45.436;4.390;2023-10-08T05:47:53;5.72;;;4.07;;
21158;SDS011;10737;45.436;4.390;2023-10-08T05:53:10;6.68;;;4.78;;
21158;SDS011;10737;45.436;4.390;2023-10-08T05:58:42;5.22;;;4.20;;
21158;SDS011;10737;45.436;4.390;2023-10-08T06:04:03;6.00;;;4.50;;
21158;SDS011;10737;45.436;4.390;2023-10-08T06:09:41;7.80;;;4.55;;
21158;SDS011;10737;45.436;4.390;2023-10-08T06:14:52;7.05;;;4.70;;
21158;SDS011;10737;45.436;4.390;2023-10-08T06:20:10;12.10;;;5.18;;
21158;SDS011;10737;45.436;4.390;2023-10-08T06:25:18;13.38;;;6.32;;
21158;SDS011;10737;45.436;4.390;2023-10-08T06:30:25;6.88;;;5.00;;
21158;SDS011;10737;45.436;4.390;2023-10-08T06:35:32;6.85;;;5.30;;
21158;SDS011;10737;45.436;4.390;2023-10-08T06:40:36;6.63;;;5.13;;
21158;SDS011;10737;45.436;4.390;2023-10-08T06:45:45;5.82;;;4.82;;
21158;SDS011;10737;45.436;4.390;2023-10-08T06:50:50;5.93;;;4.80;;
21158;SDS011;10737;45.436;4.390;2023-10-08T06:55:59;6.25;;;5.30;;
21158;SDS011;10737;45.436;4.390;2023-10-08T07:01:24;7.38;;;5.55;;
21158;SDS011;10737;45.436;4.390;2023-10-08T07:06:32;7.70;;;5.15;;
21158;SDS011;10737;45.436;4.390;2023-10-08T07:11:35;8.20;;;4.95;;
21158;SDS011;10737;45.436;4.390;2023-10-08T07:16:41;10.88;;;6.13;;
21158;SDS011;10737;45.436;4.390;2023-10-08T07:21:46;7.53;;;5.22;;
21158;SDS011;10737;45.436;4.390;2023-10-08T07:26:51;10.35;;;6.05;;
21158;SDS011;10737;45.436;4.390;2023-10-08T07:31:57;8.05;;;6.03;;
21158;SDS011;10737;45.436;4.390;2023-10-08T07:37:13;6.95;;;4.70;;
21158;SDS011;10737;45.436;4.390;2023-10-08T07:42:17;5.55;;;4.70;;
21158;SDS011;10737;45.436;4.390;2023-10-08T07:47:20;5.90;;;4.85;;
21158;SDS011;10737;45.436;4.390;2023-10-08T07:52:25;7.70;;;5.70;;
21158;SDS011;10737;45.436;4.390;2023-10-08T07:57:28;6.60;;;5.18;;
21158;SDS011;10737;45.436;4.390;2023-10-08T08:02:32;7.75;;;5.13;;
21158;SDS011;10737;45.436;4.390;2023-10-08T08:07:55;8.43;;;5.72;;
21158;SDS011;10737;45.436;4.390;2023-10-08T08:13:01;6.85;;;5.03;;
21158;SDS011;10737;45.436;4.390;2023-10-08T08:18:07;6.82;;;4.95;;
21158;SDS011;10737;45.436;4.390;2023-10-08T08:23:22;7.63;;;5.57;;
21158;SDS011;10737;45.436;4.390;2023-10-08T08:28:25;6.72;;;5.45;;
21158;SDS011;10737;45.436;4.390;2023-10-08T08:33:30;7.10;;;5.50;;
21158;SDS011;10737;45.436;4.390;2023-10-08T08:38:55;7.15;;;5.10;;
21158;SDS011;10737;45.436;4.390;2023-10-08T08:43:58;6.18;;;5.53;;
21158;SDS011;10737;45.436;4.390;2023-10-08T08:49:02;6.13;;;5.53;;
21158;SDS011;10737;45.436;4.390;2023-10-08T08:54:08;7.80;;;5.57;;
21158;SDS011;10737;45.436;4.390;2023-10-08T08:59:12;6.43;;;5.80;;
21158;SDS011;10737;45.436;4.390;2023-10-08T09:04:16;7.07;;;5.55;;
21158;SDS011;10737;45.436;4.390;2023-10-08T09:09:21;6.60;;;5.60;;
21158;SDS011;10737;45.436;4.390;2023-10-08T09:14:25;7.28;;;5.78;;
21158;SDS011;10737;45.436;4.390;2023-10-08T09:19:28;5.85;;;5.20;;
21158;SDS011;10737;45.436;4.390;2023-10-08T09:24:34;7.63;;;5.20;;
21158;SDS011;10737;45.436;4.390;2023-10-08T09:29:38;5.97;;;5.38;;
21158;SDS011;10737;45.436;4.390;2023-10-08T09:34:42;7.03;;;5.68;;
21158;SDS011;10737;45.436;4.390;2023-10-08T09:39:47;5.30;;;4.80;;
21158;SDS011;10737;45.436;4.390;2023-10-08T09:44:54;9.07;;;6.97;;
21158;SDS011;10737;45.436;4.390;2023-10-08T09:50:16;7.32;;;5.30;;
21158;SDS011;10737;45.436;4.390;2023-10-08T09:55:21;7.57;;;5.47;;
21158;SDS011;10737;45.436;4.390;2023-10-08T10:00:25;9.15;;;6.13;;
21158;SDS011;10737;45.436;4.390;2023-10-08T10:05:33;8.63;;;6.32;;
21158;SDS011;10737;45.436;4.390;2023-10-08T10:10:39;9.85;;;7.40;;
21158;SDS011;10737;45.436;4.390;2023-10-08T10:15:45;8.27;;;5.50;;
21158;SDS011;10737;45.436;4.390;2023-10-08T10:20:51;8.30;;;6.20;;
21158;SDS011;10737;45.436;4.390;2023-10-08T10:25:58;7.63;;;6.55;;
21158;SDS011;10737;45.436;4.390;2023-10-08T10:31:02;7.35;;;6.63;;
21158;SDS011;10737;45.436;4.390;2023-10-08T10:36:05;9.70;;;6.93;;
21158;SDS011;10737;45.436;4.390;2023-10-08T10:41:12;10.57;;;8.00;;
21158;SDS011;10737;45.436;4.390;2023-10-08T10:46:17;9.07;;;6.20;;
21158;SDS011;10737;45.436;4.390;2023-10-08T10:51:32;7.63;;;6.50;;
21158;SDS011;10737;45.436;4.390;2023-10-08T10:56:39;9.23;;;6.72;;
21158;SDS011;10737;45.436;4.390;2023-10-08T11:02:05;7.35;;;5.60;;
21158;SDS011;10737;45.436;4.390;2023-10-08T11:07:10;6.13;;;5.53;;
21158;SDS011;10737;45.436;4.390;2023-10-08T11:12:16;7.72;;;6.95;;
21158;SDS011;10737;45.436;4.390;2023-10-08T11:17:25;9.60;;;7.07;;
21158;SDS011;10737;45.436;4.390;2023-10-08T11:22:40;6.43;;;5.10;;
21158;SDS011;10737;45.436;4.390;2023-10-08T11:27:45;9.43;;;6.15;;
21158;SDS011;10737;45.436;4.390;2023-10-08T11:32:49;10.23;;;6.25;;
21158;SDS011;10737;45.436;4.390;2023-10-08T11:37:57;9.18;;;6.68;;
21158;SDS011;10737;45.436;4.390;2023-10-08T11:43:04;12.65;;;7.22;;
21158;SDS011;10737;45.436;4.390;2023-10-08T11:48:25;9.57;;;6.75;;
21158;SDS011;10737;45.436;4.390;2023-10-08T11:53:30;10.20;;;7.65;;
21158;SDS011;10737;45.436;4.390;2023-10-08T11:58:37;11.15;;;5.95;;
21158;SDS011;10737;45.436;4.390;2023-10-08T12:03:40;9.90;;;7.20;;
21158;SDS011;10737;45.436;4.390;2023-10-08T12:08:45;15.23;;;8.27;;
21158;SDS011;10737;45.436;4.390;2023-10-08T12:13:50;11.95;;;6.65;;
21158;SDS011;10737;45.436;4.390;2023-10-08T12:18:53;12.02;;;7.00;;
21158;SDS011;10737;45.436;4.390;2023-10-08T12:24:00;8.25;;;6.72;;
21158;SDS011;10737;45.436;4.390;2023-10-08T12:29:08;13.23;;;7.05;;
21158;SDS011;10737;45.436;4.390;2023-10-08T12:34:11;13.05;;;7.55;;
21158;SDS011;10737;45.436;4.390;2023-10-08T12:39:15;10.65;;;7.40;;
21158;SDS011;10737;45.436;4.390;2023-10-08T12:44:19;12.43;;;7.38;;
21158;SDS011;10737;45.436;4.390;2023-10-08T12:49:23;11.45;;;7.50;;
21158;SDS011;10737;45.436;4.390;2023-10-08T12:54:27;15.20;;;9.80;;
21158;SDS011;10737;45.436;4.390;2023-10-08T12:59:37;9.25;;;7.55;;
21158;SDS011;10737;45.436;4.390;2023-10-08T13:04:41;12.68;;;8.35;;
21158;SDS011;10737;45.436;4.390;2023-10-08T13:09:47;14.98;;;9.07;;
21158;SDS011;10737;45.436;4.390;2023-10-08T13:14:52;14.25;;;6.45;;
21158;SDS011;10737;45.436;4.390;2023-10-08T13:19:55;14.30;;;6.20;;
21158;SDS011;10737;45.436;4.390;2023-10-08T13:24:58;17.40;;;6.43;;
21158;SDS011;10737;45.436;4.390;2023-10-08T13:30:08;14.48;;;8.00;;
21158;SDS011;10737;45.436;4.390;2023-10-08T13:35:11;13.77;;;8.82;;
21158;SDS011;10737;45.436;4.390;2023-10-08T13:40:15;12.40;;;7.07;;
21158;SDS011;10737;45.436;4.390;2023-10-08T13:45:38;14.73;;;10.27;;
21158;SDS011;10737;45.436;4.390;2023-10-08T13:50:41;18.23;;;7.72;;
21158;SDS011;10737;45.436;4.390;2023-10-08T13:55:45;15.60;;;6.43;;
21158;SDS011;10737;45.436;4.390;2023-10-08T14:00:52;11.18;;;7.10;;
21158;SDS011;10737;45.436;4.390;2023-10-08T14:05:55;14.15;;;7.47;;
21158;SDS011;10737;45.436;4.390;2023-10-08T14:11:02;10.13;;;5.88;;
21158;SDS011;10737;45.436;4.390;2023-10-08T14:16:07;9.27;;;6.25;;
21158;SDS011;10737;45.436;4.390;2023-10-08T14:21:13;10.70;;;6.20;;
21158;SDS011;10737;45.436;4.390;2023-10-08T14:26:17;15.45;;;8.93;;
21158;SDS011;10737;45.436;4.390;2023-10-08T14:31:24;12.25;;;6.22;;
21158;SDS011;10737;45.436;4.390;2023-10-08T14:36:28;12.02;;;5.63;;
21158;SDS011;10737;45.436;4.390;2023-10-08T14:41:49;10.77;;;6.15;;
21158;SDS011;10737;45.436;4.390;2023-10-08T14:47:13;13.48;;;7.20;;
21158;SDS011;10737;45.436;4.390;2023-10-08T14:52:35;10.48;;;6.32;;
21158;SDS011;10737;45.436;4.390;2023-10-08T14:57:38;9.50;;;5.22;;
21158;SDS011;10737;45.436;4.390;2023-10-08T15:03:04;17.38;;;11.77;;
21158;SDS011;10737;45.436;4.390;2023-10-08T15:08:07;12.60;;;6.13;;
21158;SDS011;10737;45.436;4.390;2023-10-08T15:13:12;12.45;;;8.13;;
21158;SDS011;10737;45.436;4.390;2023-10-08T15:18:19;11.82;;;7.32;;
21158;SDS011;10737;45.436;4.390;2023-10-08T15:23:24;9.82;;;6.68;;
21158;SDS011;10737;45.436;4.390;2023-10-08T15:28:29;19.00;;;7.75;;
21158;SDS011;10737;45.436;4.390;2023-10-08T15:33:34;12.73;;;6.55;;
21158;SDS011;10737;45.436;4.390;2023-10-08T15:38:38;17.63;;;8.63;;
21158;SDS011;10737;45.436;4.390;2023-10-08T15:43:41;22.17;;;15.05;;
21158;SDS011;10737;45.436;4.390;2023-10-08T15:49:06;10.30;;;5.85;;
21158;SDS011;10737;45.436;4.390;2023-10-08T15:54:11;17.42;;;8.93;;
21158;SDS011;10737;45.436;4.390;2023-10-08T15:59:15;16.77;;;7.93;;
21158;SDS011;10737;45.436;4.390;2023-10-08T16:04:20;18.00;;;12.15;;
21158;SDS011;10737;45.436;4.390;2023-10-08T16:09:28;11.02;;;7.30;;
21158;SDS011;10737;45.436;4.390;2023-10-08T16:14:50;9.68;;;7.20;;
21158;SDS011;10737;45.436;4.390;2023-10-08T16:19:55;13.50;;;6.38;;
21158;SDS011;10737;45.436;4.390;2023-10-08T16:24:58;13.25;;;6.53;;
21158;SDS011;10737;45.436;4.390;2023-10-08T16:30:03;17.63;;;7.68;;
21158;SDS011;10737;45.436;4.390;2023-10-08T16:35:08;14.63;;;9.65;;
21158;SDS011;10737;45.436;4.390;2023-10-08T16:40:11;20.20;;;11.75;;
21158;SDS011;10737;45.436;4.390;2023-10-08T16:45:15;13.57;;;6.75;;
21158;SDS011;10737;45.436;4.390;2023-10-08T16:50:21;14.38;;;6.70;;
21158;SDS011;10737;45.436;4.390;2023-10-08T16:55:24;9.93;;;6.20;;
21158;SDS011;10737;45.436;4.390;2023-10-08T17:00:28;14.23;;;7.22;;
21158;SDS011;10737;45.436;4.390;2023-10-08T17:05:51;10.70;;;7.57;;
21158;SDS011;10737;45.436;4.390;2023-10-08T17:10:55;11.27;;;7.32;;
21158;SDS011;10737;45.436;4.390;2023-10-08T17:15:58;37.53;;;23.13;;
21158;SDS011;10737;45.436;4.390;2023-10-08T17:21:03;42.45;;;30.25;;
21158;SDS011;10737;45.436;4.390;2023-10-08T17:26:08;32.63;;;22.88;;
21158;SDS011;10737;45.436;4.390;2023-10-08T17:31:30;30.00;;;24.38;;
21158;SDS011;10737;45.436;4.390;2023-10-08T17:36:37;22.98;;;15.23;;
21158;SDS011;10737;45.436;4.390;2023-10-08T17:41:40;13.50;;;9.73;;
21158;SDS011;10737;45.436;4.390;2023-10-08T17:46:43;37.45;;;27.23;;
21158;SDS011;10737;45.436;4.390;2023-10-08T17:51:48;49.33;;;32.47;;
21158;SDS011;10737;45.436;4.390;2023-10-08T17:56:51;35.72;;;26.30;;
21158;SDS011;10737;45.436;4.390;2023-10-08T18:01:55;23.70;;;18.23;;
21158;SDS011;10737;45.436;4.390;2023-10-08T18:07:00;15.55;;;11.50;;
21158;SDS011;10737;45.436;4.390;2023-10-08T18:12:03;11.98;;;7.28;;
21158;SDS011;10737;45.436;4.390;2023-10-08T18:17:08;9.38;;;6.75;;
21158;SDS011;10737;45.436;4.390;2023-10-08T18:22:13;13.43;;;10.35;;
21158;SDS011;10737;45.436;4.390;2023-10-08T18:27:17;17.02;;;8.93;;
21158;SDS011;10737;45.436;4.390;2023-10-08T18:32:20;13.05;;;7.93;;
21158;SDS011;10737;45.436;4.390;2023-10-08T18:37:26;13.57;;;9.85;;
21158;SDS011;10737;45.436;4.390;2023-10-08T18:42:29;15.60;;;9.60;;
21158;SDS011;10737;45.436;4.390;2023-10-08T18:47:32;10.93;;;6.38;;
21158;SDS011;10737;45.436;4.390;2023-10-08T18:52:38;11.98;;;6.70;;
21158;SDS011;10737;45.436;4.390;2023-10-08T18:57:42;10.25;;;6.60;;
21158;SDS011;10737;45.436;4.390;2023-10-08T19:02:49;10.85;;;7.30;;
21158;SDS011;10737;45.436;4.390;2023-10-08T19:07:54;10.15;;;7.78;;
21158;SDS011;10737;45.436;4.390;2023-10-08T19:12:58;11.52;;;6.30;;
21158;SDS011;10737;45.436;4.390;2023-10-08T19:18:03;10.02;;;5.90;;
21158;SDS011;10737;45.436;4.390;2023-10-08T19:23:08;9.75;;;6.10;;
21158;SDS011;10737;45.436;4.390;2023-10-08T19:28:12;14.57;;;7.28;;
21158;SDS011;10737;45.436;4.390;2023-10-08T19:33:17;9.07;;;6.45;;
21158;SDS011;10737;45.436;4.390;2023-10-08T19:38:22;10.75;;;6.18;;
21158;SDS011;10737;45.436;4.390;2023-10-08T19:43:26;9.30;;;7.05;;
21158;SDS011;10737;45.436;4.390;2023-10-08T19:48:30;9.68;;;6.47;;
21158;SDS011;10737;45.436;4.390;2023-10-08T19:53:54;11.38;;;7.40;;
21158;SDS011;10737;45.436;4.390;2023-10-08T19:59:01;16.13;;;6.78;;
21158;SDS011;10737;45.436;4.390;2023-10-08T20:04:23;11.95;;;9.77;;
21158;SDS011;10737;45.436;4.390;2023-10-08T20:09:28;13.77;;;7.85;;
21158;SDS011;10737;45.436;4.390;2023-10-08T20:14:31;8.05;;;5.85;;
21158;SDS011;10737;45.436;4.390;2023-10-08T20:19:34;11.45;;;7.30;;
21158;SDS011;10737;45.436;4.390;2023-10-08T20:24:40;11.93;;;9.07;;
21158;SDS011;10737;45.436;4.390;2023-10-08T20:29:44;11.18;;;6.20;;
21158;SDS011;10737;45.436;4.390;2023-10-08T20:34:47;12.25;;;6.68;;
21158;SDS011;10737;45.436;4.390;2023-10-08T20:39:54;9.38;;;6.68;;
21158;SDS011;10737;45.436;4.390;2023-10-08T20:45:00;8.68;;;5.75;;
21158;SDS011;10737;45.436;4.390;2023-10-08T20:50:05;11.20;;;7.18;;
21158;SDS011;10737;45.436;4.390;2023-10-08T20:55:23;11.25;;;6.57;;
21158;SDS011;10737;45.436;4.390;2023-10-08T21:00:28;12.07;;;6.95;;
21158;SDS011;10737;45.436;4.390;2023-10-08T21:05:33;13.65;;;7.35;;
21158;SDS011;10737;45.436;4.390;2023-10-08T21:10:39;14.98;;;7.10;;
21158;SDS011;10737;45.436;4.390;2023-10-08T21:15:49;13.20;;;7.60;;
21158;SDS011;10737;45.436;4.390;2023-10-08T21:20:53;8.25;;;5.55;;
21158;SDS011;10737;45.436;4.390;2023-10-08T21:25:57;13.40;;;6.50;;
21158;SDS011;10737;45.436;4.390;2023-10-08T21:31:07;14.60;;;6.50;;
21158;SDS011;10737;45.436;4.390;2023-10-08T21:36:10;9.75;;;7.38;;
21158;SDS011;10737;45.436;4.390;2023-10-08T21:41:16;8.27;;;6.18;;
21158;SDS011;10737;45.436;4.390;2023-10-08T21:46:19;10.65;;;6.25;;
21158;SDS011;10737;45.436;4.390;2023-10-08T21:51:23;12.63;;;6.78;;
21158;SDS011;10737;45.436;4.390;2023-10-08T21:56:31;11.35;;;5.55;;
21158;SDS011;10737;45.436;4.390;2023-10-08T22:01:35;11.57;;;5.97;;
21158;SDS011;10737;45.436;4.390;2023-10-08T22:06:40;8.95;;;5.20;;
21158;SDS011;10737;45.436;4.390;2023-10-08T22:11:46;12.18;;;6.20;;
21158;SDS011;10737;45.436;4.390;2023-10-08T22:16:51;12.27;;;5.78;;
21158;SDS011;10737;45.436;4.390;2023-10-08T22:21:54;7.78;;;5.13;;
21158;SDS011;10737;45.436;4.390;2023-10-08T22:26:59;7.20;;;4.35;;
21158;SDS011;10737;45.436;4.390;2023-10-08T22:32:02;11.45;;;5.93;;
21158;SDS011;10737;45.436;4.390;2023-10-08T22:37:10;15.15;;;6.10;;
21158;SDS011;10737;45.436;4.390;2023-10-08T22:42:40;13.00;;;5.60;;
21158;SDS011;10737;45.436;4.390;2023-10-08T22:47:44;11.85;;;5.80;;
21158;SDS011;10737;45.436;4.390;2023-10-08T22:52:48;11.13;;;5.32;;
21158;SDS011;10737;45.436;4.390;2023-10-08T22:57:54;9.38;;;5.07;;
21158;SDS011;10737;45.436;4.390;2023-10-08T23:02:59;12.07;;;5.90;;
21158;SDS011;10737;45.436;4.390;2023-10-08T23:08:04;8.88;;;5.28;;
21158;SDS011;10737;45.436;4.390;2023-10-08T23:13:09;10.05;;;4.80;;
21158;SDS011;10737;45.436;4.390;2023-10-08T23:18:13;11.80;;;5.57;;
21158;SDS011;10737;45.436;4.390;2023-10-08T23:23:16;7.57;;;5.13;;
21158;SDS011;10737;45.436;4.390;2023-10-08T23:28:23;11.40;;;5.57;;
21158;SDS011;10737;45.436;4.390;2023-10-08T23:33:28;8.65;;;5.97;;
21158;SDS011;10737;45.436;4.390;2023-10-08T23:38:35;9.68;;;6.18;;
21158;SDS011;10737;45.436;4.390;2023-10-08T23:43:43;11.73;;;6.15;;
21158;SDS011;10737;45.436;4.390;2023-10-08T23:48:55;11.13;;;5.65;;
21158;SDS011;10737;45.436;4.390;2023-10-08T23:54:06;14.27;;;5.82;;
21158;SDS011;10737;45.436;4.390;2023-10-08T23:59:15;12.30;;;6.13;;
